sensor_id;sensor_type;location;lat;lon;timestamp;temperature;humidity
34646;DHT22;20857;47.808;12.482;2022-10-23T00:00:34;10.90;99.90
34646;DHT22;20857;47.808;12.482;2022-10-23T00:03:00;10.90;99.90
34646;DHT22;20857;47.808;12.482;2022-10-23T00:05:27;10.90;99.90
34646;DHT22;20857;47.808;12.482;2022-10-23T00:07:58;10.90;99.90
34646;DHT22;20857;47.808;12.482;2022-10-23T00:10:24;10.80;99.90
34646;DHT22;20857;47.808;12.482;2022-10-23T00:12:50;10.80;99.90
34646;DHT22;20857;47.808;12.482;2022-10-23T00:15:18;10.80;99.90
34646;DHT22;20857;47.808;12.482;2022-10-23T00:17:44;10.80;99.90
34646;DHT22;20857;47.808;12.482;2022-10-23T00:20:11;10.80;99.90
34646;DHT22;20857;47.808;12.482;2022-10-23T00:22:37;10.80;99.90
34646;DHT22;20857;47.808;12.482;2022-10-23T00:25:04;10.90;99.90
34646;DHT22;20857;47.808;12.482;2022-10-23T00:27:30;10.90;99.90
34646;DHT22;20857;47.808;12.482;2022-10-23T00:29:56;11.00;99.90
34646;DHT22;20857;47.808;12.482;2022-10-23T00:32:21;10.90;99.90
34646;DHT22;20857;47.808;12.482;2022-10-23T00:34:47;10.90;99.90
34646;DHT22;20857;47.808;12.482;2022-10-23T00:37:13;10.80;99.90
34646;DHT22;20857;47.808;12.482;2022-10-23T00:39:38;10.80;99.90
34646;DHT22;20857;47.808;12.482;2022-10-23T00:42:04;10.80;99.90
34646;DHT22;20857;47.808;12.482;2022-10-23T00:46:56;10.80;99.90
34646;DHT22;20857;47.808;12.482;2022-10-23T00:49:22;10.80;99.90
34646;DHT22;20857;47.808;12.482;2022-10-23T00:51:51;10.70;99.90
34646;DHT22;20857;47.808;12.482;2022-10-23T00:54:22;10.80;99.90
34646;DHT22;20857;47.808;12.482;2022-10-23T00:56:51;10.80;99.90
34646;DHT22;20857;47.808;12.482;2022-10-23T00:59:18;10.80;99.90
34646;DHT22;20857;47.808;12.482;2022-10-23T01:01:43;10.80;99.90
34646;DHT22;20857;47.808;12.482;2022-10-23T01:04:09;10.80;99.90
34646;DHT22;20857;47.808;12.482;2022-10-23T01:06:48;10.70;99.90
34646;DHT22;20857;47.808;12.482;2022-10-23T01:17:43;10.70;99.90
34646;DHT22;20857;47.808;12.482;2022-10-23T01:28:03;10.70;99.90
34646;DHT22;20857;47.808;12.482;2022-10-23T01:30:32;10.70;99.90
34646;DHT22;20857;47.808;12.482;2022-10-23T01:33:12;10.70;99.90
34646;DHT22;20857;47.808;12.482;2022-10-23T01:35:55;10.60;99.90
34646;DHT22;20857;47.808;12.482;2022-10-23T01:38:34;10.60;99.90
34646;DHT22;20857;47.808;12.482;2022-10-23T01:42:05;10.70;99.90
34646;DHT22;20857;47.808;12.482;2022-10-23T01:44:15;10.60;99.90
34646;DHT22;20857;47.808;12.482;2022-10-23T01:46:45;10.50;99.90
34646;DHT22;20857;47.808;12.482;2022-10-23T01:49:13;10.60;99.90
34646;DHT22;20857;47.808;12.482;2022-10-23T01:51:41;10.50;99.90
34646;DHT22;20857;47.808;12.482;2022-10-23T01:54:10;10.40;99.90
34646;DHT22;20857;47.808;12.482;2022-10-23T01:56:40;10.50;99.90
34646;DHT22;20857;47.808;12.482;2022-10-23T01:59:13;10.50;99.90
34646;DHT22;20857;47.808;12.482;2022-10-23T02:01:42;10.50;99.90
34646;DHT22;20857;47.808;12.482;2022-10-23T02:04:15;10.40;99.90
34646;DHT22;20857;47.808;12.482;2022-10-23T02:06:42;10.50;99.90
34646;DHT22;20857;47.808;12.482;2022-10-23T02:09:08;10.50;99.90
34646;DHT22;20857;47.808;12.482;2022-10-23T02:11:39;10.50;99.90
34646;DHT22;20857;47.808;12.482;2022-10-23T02:14:36;10.60;99.90
34646;DHT22;20857;47.808;12.482;2022-10-23T02:17:21;10.60;99.90
34646;DHT22;20857;47.808;12.482;2022-10-23T02:19:49;10.60;99.90
34646;DHT22;20857;47.808;12.482;2022-10-23T02:22:24;10.50;99.90
34646;DHT22;20857;47.808;12.482;2022-10-23T02:27:33;10.50;99.90
34646;DHT22;20857;47.808;12.482;2022-10-23T02:30:05;10.50;99.90
34646;DHT22;20857;47.808;12.482;2022-10-23T02:32:33;10.50;99.90
34646;DHT22;20857;47.808;12.482;2022-10-23T02:34:59;10.40;99.90
34646;DHT22;20857;47.808;12.482;2022-10-23T02:37:25;10.40;99.90
34646;DHT22;20857;47.808;12.482;2022-10-23T02:39:52;10.30;99.90
34646;DHT22;20857;47.808;12.482;2022-10-23T02:42:25;10.40;99.90
34646;DHT22;20857;47.808;12.482;2022-10-23T02:45:02;10.20;99.90
34646;DHT22;20857;47.808;12.482;2022-10-23T02:47:54;10.10;99.90
34646;DHT22;20857;47.808;12.482;2022-10-23T02:50:35;10.10;99.90
34646;DHT22;20857;47.808;12.482;2022-10-23T02:58:30;10.00;99.90
34646;DHT22;20857;47.808;12.482;2022-10-23T03:01:07;10.00;99.90
34646;DHT22;20857;47.808;12.482;2022-10-23T03:03:40;10.10;99.90
34646;DHT22;20857;47.808;12.482;2022-10-23T03:06:06;10.10;99.90
34646;DHT22;20857;47.808;12.482;2022-10-23T03:08:53;10.10;99.90
34646;DHT22;20857;47.808;12.482;2022-10-23T03:11:19;10.10;99.90
34646;DHT22;20857;47.808;12.482;2022-10-23T03:13:46;10.20;99.90
34646;DHT22;20857;47.808;12.482;2022-10-23T03:16:12;10.20;99.90
34646;DHT22;20857;47.808;12.482;2022-10-23T03:18:37;10.20;99.90
34646;DHT22;20857;47.808;12.482;2022-10-23T03:21:03;10.30;99.90
34646;DHT22;20857;47.808;12.482;2022-10-23T03:23:28;10.30;99.90
34646;DHT22;20857;47.808;12.482;2022-10-23T03:25:54;10.30;99.90
34646;DHT22;20857;47.808;12.482;2022-10-23T03:28:21;10.20;99.90
34646;DHT22;20857;47.808;12.482;2022-10-23T03:30:47;10.20;99.90
34646;DHT22;20857;47.808;12.482;2022-10-23T03:33:13;10.20;99.90
34646;DHT22;20857;47.808;12.482;2022-10-23T03:35:38;10.10;99.90
34646;DHT22;20857;47.808;12.482;2022-10-23T03:38:04;10.10;99.90
34646;DHT22;20857;47.808;12.482;2022-10-23T03:40:30;10.10;99.90
34646;DHT22;20857;47.808;12.482;2022-10-23T03:42:55;10.00;99.90
34646;DHT22;20857;47.808;12.482;2022-10-23T03:45:21;10.10;99.90
34646;DHT22;20857;47.808;12.482;2022-10-23T03:47:46;10.10;99.90
34646;DHT22;20857;47.808;12.482;2022-10-23T03:50:13;10.20;99.90
34646;DHT22;20857;47.808;12.482;2022-10-23T03:52:39;10.10;99.90
34646;DHT22;20857;47.808;12.482;2022-10-23T03:55:05;10.10;99.90
34646;DHT22;20857;47.808;12.482;2022-10-23T03:57:31;10.20;99.90
34646;DHT22;20857;47.808;12.482;2022-10-23T03:59:57;10.10;99.90
34646;DHT22;20857;47.808;12.482;2022-10-23T04:02:23;10.10;99.90
34646;DHT22;20857;47.808;12.482;2022-10-23T04:04:48;10.20;99.90
34646;DHT22;20857;47.808;12.482;2022-10-23T04:07:14;10.10;99.90
34646;DHT22;20857;47.808;12.482;2022-10-23T04:09:40;10.20;99.90
34646;DHT22;20857;47.808;12.482;2022-10-23T04:12:05;10.20;99.90
34646;DHT22;20857;47.808;12.482;2022-10-23T04:14:31;10.20;99.90
34646;DHT22;20857;47.808;12.482;2022-10-23T04:16:57;10.30;99.90
34646;DHT22;20857;47.808;12.482;2022-10-23T04:19:23;10.20;99.90
34646;DHT22;20857;47.808;12.482;2022-10-23T04:21:48;10.20;99.90
34646;DHT22;20857;47.808;12.482;2022-10-23T04:24:14;10.10;99.90
34646;DHT22;20857;47.808;12.482;2022-10-23T04:26:40;10.20;99.90
34646;DHT22;20857;47.808;12.482;2022-10-23T04:29:05;10.10;99.90
34646;DHT22;20857;47.808;12.482;2022-10-23T04:31:31;10.00;99.90
34646;DHT22;20857;47.808;12.482;2022-10-23T04:33:57;10.10;99.90
34646;DHT22;20857;47.808;12.482;2022-10-23T04:36:22;10.10;99.90
34646;DHT22;20857;47.808;12.482;2022-10-23T04:38:48;10.00;99.90
34646;DHT22;20857;47.808;12.482;2022-10-23T04:41:13;10.10;99.90
34646;DHT22;20857;47.808;12.482;2022-10-23T04:43:39;10.00;99.90
34646;DHT22;20857;47.808;12.482;2022-10-23T04:46:05;10.10;99.90
34646;DHT22;20857;47.808;12.482;2022-10-23T04:48:31;10.20;99.90
34646;DHT22;20857;47.808;12.482;2022-10-23T04:51:01;10.10;99.90
34646;DHT22;20857;47.808;12.482;2022-10-23T04:53:28;10.20;99.90
34646;DHT22;20857;47.808;12.482;2022-10-23T04:55:55;10.20;99.90
34646;DHT22;20857;47.808;12.482;2022-10-23T04:58:22;10.20;99.90
34646;DHT22;20857;47.808;12.482;2022-10-23T05:00:48;10.20;99.90
34646;DHT22;20857;47.808;12.482;2022-10-23T05:03:15;10.30;99.90
34646;DHT22;20857;47.808;12.482;2022-10-23T05:05:41;10.30;99.90
34646;DHT22;20857;47.808;12.482;2022-10-23T05:08:07;10.30;99.90
34646;DHT22;20857;47.808;12.482;2022-10-23T05:10:33;10.30;99.90
34646;DHT22;20857;47.808;12.482;2022-10-23T05:12:58;10.40;99.90
34646;DHT22;20857;47.808;12.482;2022-10-23T05:15:24;10.40;99.90
34646;DHT22;20857;47.808;12.482;2022-10-23T05:17:53;10.50;99.90
34646;DHT22;20857;47.808;12.482;2022-10-23T05:20:23;10.60;99.90
34646;DHT22;20857;47.808;12.482;2022-10-23T05:22:50;10.50;99.90
34646;DHT22;20857;47.808;12.482;2022-10-23T05:25:16;10.60;99.90
34646;DHT22;20857;47.808;12.482;2022-10-23T05:27:42;10.60;99.90
34646;DHT22;20857;47.808;12.482;2022-10-23T05:30:08;10.50;99.90
34646;DHT22;20857;47.808;12.482;2022-10-23T05:32:35;10.60;99.90
34646;DHT22;20857;47.808;12.482;2022-10-23T05:35:04;10.60;99.90
34646;DHT22;20857;47.808;12.482;2022-10-23T05:37:31;10.60;99.90
34646;DHT22;20857;47.808;12.482;2022-10-23T05:39:57;10.70;99.90
34646;DHT22;20857;47.808;12.482;2022-10-23T05:42:22;10.70;99.90
34646;DHT22;20857;47.808;12.482;2022-10-23T05:44:48;10.70;99.90
34646;DHT22;20857;47.808;12.482;2022-10-23T05:47:13;10.70;99.90
34646;DHT22;20857;47.808;12.482;2022-10-23T05:49:39;10.70;99.90
34646;DHT22;20857;47.808;12.482;2022-10-23T05:52:05;10.80;99.90
34646;DHT22;20857;47.808;12.482;2022-10-23T05:54:30;10.80;99.90
34646;DHT22;20857;47.808;12.482;2022-10-23T05:56:56;10.80;99.90
34646;DHT22;20857;47.808;12.482;2022-10-23T05:59:22;10.90;99.90
34646;DHT22;20857;47.808;12.482;2022-10-23T06:01:47;10.90;99.90
34646;DHT22;20857;47.808;12.482;2022-10-23T06:04:13;10.90;99.90
34646;DHT22;20857;47.808;12.482;2022-10-23T06:06:38;10.60;99.90
34646;DHT22;20857;47.808;12.482;2022-10-23T06:09:04;10.30;99.90
34646;DHT22;20857;47.808;12.482;2022-10-23T06:11:30;10.00;99.90
34646;DHT22;20857;47.808;12.482;2022-10-23T06:13:56;9.60;99.90
34646;DHT22;20857;47.808;12.482;2022-10-23T06:16:23;9.60;99.90
34646;DHT22;20857;47.808;12.482;2022-10-23T06:18:49;9.50;99.90
34646;DHT22;20857;47.808;12.482;2022-10-23T06:21:15;9.60;99.90
34646;DHT22;20857;47.808;12.482;2022-10-23T06:23:42;9.60;99.90
34646;DHT22;20857;47.808;12.482;2022-10-23T06:26:10;9.60;99.90
34646;DHT22;20857;47.808;12.482;2022-10-23T06:28:37;9.60;99.90
34646;DHT22;20857;47.808;12.482;2022-10-23T06:31:04;9.60;99.90
34646;DHT22;20857;47.808;12.482;2022-10-23T06:33:30;9.70;99.90
34646;DHT22;20857;47.808;12.482;2022-10-23T06:35:55;9.80;99.90
34646;DHT22;20857;47.808;12.482;2022-10-23T06:38:21;9.90;99.90
34646;DHT22;20857;47.808;12.482;2022-10-23T06:40:52;10.20;99.90
34646;DHT22;20857;47.808;12.482;2022-10-23T06:43:17;10.40;99.90
34646;DHT22;20857;47.808;12.482;2022-10-23T06:45:43;10.60;99.90
34646;DHT22;20857;47.808;12.482;2022-10-23T06:48:08;10.70;99.90
34646;DHT22;20857;47.808;12.482;2022-10-23T06:50:36;10.80;99.90
34646;DHT22;20857;47.808;12.482;2022-10-23T06:53:01;10.80;99.90
34646;DHT22;20857;47.808;12.482;2022-10-23T06:55:28;10.90;99.90
34646;DHT22;20857;47.808;12.482;2022-10-23T06:57:54;11.00;99.90
34646;DHT22;20857;47.808;12.482;2022-10-23T07:00:20;11.10;99.90
34646;DHT22;20857;47.808;12.482;2022-10-23T07:02:46;11.20;99.90
34646;DHT22;20857;47.808;12.482;2022-10-23T07:05:11;11.30;99.90
34646;DHT22;20857;47.808;12.482;2022-10-23T07:07:37;11.20;99.90
34646;DHT22;20857;47.808;12.482;2022-10-23T07:10:03;11.30;99.90
34646;DHT22;20857;47.808;12.482;2022-10-23T07:12:29;11.40;99.90
34646;DHT22;20857;47.808;12.482;2022-10-23T07:14:54;11.40;99.90
34646;DHT22;20857;47.808;12.482;2022-10-23T07:17:20;11.30;99.90
34646;DHT22;20857;47.808;12.482;2022-10-23T07:19:46;11.30;99.90
34646;DHT22;20857;47.808;12.482;2022-10-23T07:22:12;11.20;99.90
34646;DHT22;20857;47.808;12.482;2022-10-23T07:24:37;11.10;99.90
34646;DHT22;20857;47.808;12.482;2022-10-23T07:27:04;11.20;99.90
34646;DHT22;20857;47.808;12.482;2022-10-23T07:29:31;11.20;99.90
34646;DHT22;20857;47.808;12.482;2022-10-23T07:31:58;11.30;99.90
34646;DHT22;20857;47.808;12.482;2022-10-23T07:34:25;11.50;99.90
34646;DHT22;20857;47.808;12.482;2022-10-23T07:36:51;11.60;99.90
34646;DHT22;20857;47.808;12.482;2022-10-23T07:39:19;11.70;99.90
34646;DHT22;20857;47.808;12.482;2022-10-23T07:41:44;11.90;99.90
34646;DHT22;20857;47.808;12.482;2022-10-23T07:44:10;12.10;99.90
34646;DHT22;20857;47.808;12.482;2022-10-23T07:46:36;12.20;99.90
34646;DHT22;20857;47.808;12.482;2022-10-23T07:49:01;12.40;99.90
34646;DHT22;20857;47.808;12.482;2022-10-23T07:51:27;12.40;99.90
34646;DHT22;20857;47.808;12.482;2022-10-23T07:53:52;12.40;99.90
34646;DHT22;20857;47.808;12.482;2022-10-23T07:56:22;12.40;99.90
34646;DHT22;20857;47.808;12.482;2022-10-23T07:58:49;12.40;99.90
34646;DHT22;20857;47.808;12.482;2022-10-23T08:01:32;12.50;99.90
34646;DHT22;20857;47.808;12.482;2022-10-23T08:03:58;12.60;99.90
34646;DHT22;20857;47.808;12.482;2022-10-23T08:06:24;12.70;99.90
34646;DHT22;20857;47.808;12.482;2022-10-23T08:08:50;12.80;99.90
34646;DHT22;20857;47.808;12.482;2022-10-23T08:11:18;12.90;99.90
34646;DHT22;20857;47.808;12.482;2022-10-23T08:13:49;13.00;99.90
34646;DHT22;20857;47.808;12.482;2022-10-23T08:16:15;13.00;99.90
34646;DHT22;20857;47.808;12.482;2022-10-23T08:18:40;13.10;99.90
34646;DHT22;20857;47.808;12.482;2022-10-23T08:21:08;13.30;99.90
34646;DHT22;20857;47.808;12.482;2022-10-23T08:23:34;13.40;99.90
34646;DHT22;20857;47.808;12.482;2022-10-23T08:26:01;13.40;99.90
34646;DHT22;20857;47.808;12.482;2022-10-23T08:28:28;13.50;99.90
34646;DHT22;20857;47.808;12.482;2022-10-23T08:30:54;13.70;99.90
34646;DHT22;20857;47.808;12.482;2022-10-23T08:33:21;13.80;99.90
34646;DHT22;20857;47.808;12.482;2022-10-23T08:35:47;14.00;99.90
34646;DHT22;20857;47.808;12.482;2022-10-23T08:38:12;14.10;99.90
34646;DHT22;20857;47.808;12.482;2022-10-23T08:40:43;14.10;99.90
34646;DHT22;20857;47.808;12.482;2022-10-23T08:48:21;14.30;99.90
34646;DHT22;20857;47.808;12.482;2022-10-23T08:51:04;14.50;99.90
34646;DHT22;20857;47.808;12.482;2022-10-23T08:53:42;14.60;99.90
34646;DHT22;20857;47.808;12.482;2022-10-23T08:56:20;14.70;99.90
34646;DHT22;20857;47.808;12.482;2022-10-23T08:58:58;14.70;99.90
34646;DHT22;20857;47.808;12.482;2022-10-23T09:01:30;14.80;99.90
34646;DHT22;20857;47.808;12.482;2022-10-23T09:03:58;14.90;99.90
34646;DHT22;20857;47.808;12.482;2022-10-23T09:17:56;15.20;99.90
34646;DHT22;20857;47.808;12.482;2022-10-23T09:20:34;15.20;99.90
34646;DHT22;20857;47.808;12.482;2022-10-23T09:25:40;15.40;99.90
34646;DHT22;20857;47.808;12.482;2022-10-23T09:28:18;15.50;99.90
34646;DHT22;20857;47.808;12.482;2022-10-23T09:30:44;15.50;99.90
34646;DHT22;20857;47.808;12.482;2022-10-23T09:33:15;15.60;99.90
34646;DHT22;20857;47.808;12.482;2022-10-23T09:38:52;15.90;99.90
34646;DHT22;20857;47.808;12.482;2022-10-23T09:41:28;15.80;99.90
34646;DHT22;20857;47.808;12.482;2022-10-23T09:46:46;16.00;99.90
34646;DHT22;20857;47.808;12.482;2022-10-23T09:49:20;15.90;99.90
34646;DHT22;20857;47.808;12.482;2022-10-23T09:52:00;16.00;99.90
34646;DHT22;20857;47.808;12.482;2022-10-23T09:54:47;15.90;99.90
34646;DHT22;20857;47.808;12.482;2022-10-23T09:57:28;15.90;99.90
34646;DHT22;20857;47.808;12.482;2022-10-23T09:59:59;15.90;99.90
34646;DHT22;20857;47.808;12.482;2022-10-23T10:02:33;16.10;99.90
34646;DHT22;20857;47.808;12.482;2022-10-23T10:05:19;16.10;99.90
34646;DHT22;20857;47.808;12.482;2022-10-23T10:07:54;16.20;99.90
34646;DHT22;20857;47.808;12.482;2022-10-23T10:10:20;16.40;99.90
34646;DHT22;20857;47.808;12.482;2022-10-23T10:12:53;16.60;99.90
34646;DHT22;20857;47.808;12.482;2022-10-23T10:15:42;16.70;99.90
34646;DHT22;20857;47.808;12.482;2022-10-23T10:18:23;16.90;99.90
34646;DHT22;20857;47.808;12.482;2022-10-23T10:23:39;17.20;99.90
34646;DHT22;20857;47.808;12.482;2022-10-23T10:29:38;17.50;99.90
34646;DHT22;20857;47.808;12.482;2022-10-23T10:37:17;17.80;99.90
34646;DHT22;20857;47.808;12.482;2022-10-23T10:39:46;17.80;99.90
34646;DHT22;20857;47.808;12.482;2022-10-23T10:52:58;18.00;99.90
34646;DHT22;20857;47.808;12.482;2022-10-23T10:55:43;18.10;99.90
34646;DHT22;20857;47.808;12.482;2022-10-23T10:58:29;18.20;99.90
34646;DHT22;20857;47.808;12.482;2022-10-23T11:00:58;18.30;99.90
34646;DHT22;20857;47.808;12.482;2022-10-23T11:03:35;18.50;99.90
34646;DHT22;20857;47.808;12.482;2022-10-23T11:06:05;18.50;99.90
34646;DHT22;20857;47.808;12.482;2022-10-23T11:11:22;18.50;99.90
34646;DHT22;20857;47.808;12.482;2022-10-23T11:13:49;18.60;99.90
34646;DHT22;20857;47.808;12.482;2022-10-23T11:16:26;18.60;99.90
34646;DHT22;20857;47.808;12.482;2022-10-23T11:21:29;18.80;99.90
34646;DHT22;20857;47.808;12.482;2022-10-23T11:24:03;18.90;99.90
34646;DHT22;20857;47.808;12.482;2022-10-23T11:35:23;19.20;99.90
34646;DHT22;20857;47.808;12.482;2022-10-23T11:38:17;19.40;99.90
34646;DHT22;20857;47.808;12.482;2022-10-23T11:40:50;19.50;99.90
34646;DHT22;20857;47.808;12.482;2022-10-23T11:43:30;19.60;99.90
34646;DHT22;20857;47.808;12.482;2022-10-23T11:45:58;19.60;99.90
34646;DHT22;20857;47.808;12.482;2022-10-23T11:48:38;19.60;99.90
34646;DHT22;20857;47.808;12.482;2022-10-23T11:51:04;19.80;99.90
34646;DHT22;20857;47.808;12.482;2022-10-23T11:59:25;19.70;99.90
34646;DHT22;20857;47.808;12.482;2022-10-23T12:01:55;19.80;99.90
34646;DHT22;20857;47.808;12.482;2022-10-23T12:04:24;19.80;99.90
34646;DHT22;20857;47.808;12.482;2022-10-23T12:06:59;19.90;99.90
34646;DHT22;20857;47.808;12.482;2022-10-23T12:16:58;20.30;99.90
34646;DHT22;20857;47.808;12.482;2022-10-23T12:19:26;20.40;99.90
34646;DHT22;20857;47.808;12.482;2022-10-23T12:22:00;20.50;99.90
34646;DHT22;20857;47.808;12.482;2022-10-23T12:24:45;20.70;99.90
34646;DHT22;20857;47.808;12.482;2022-10-23T12:30:15;20.70;99.90
34646;DHT22;20857;47.808;12.482;2022-10-23T12:38:17;20.60;99.90
34646;DHT22;20857;47.808;12.482;2022-10-23T12:40:49;20.40;99.90
34646;DHT22;20857;47.808;12.482;2022-10-23T12:43:30;20.40;99.90
34646;DHT22;20857;47.808;12.482;2022-10-23T12:46:02;20.50;99.90
34646;DHT22;20857;47.808;12.482;2022-10-23T12:48:28;20.70;99.90
34646;DHT22;20857;47.808;12.482;2022-10-23T12:50:55;20.60;99.90
34646;DHT22;20857;47.808;12.482;2022-10-23T12:53:21;20.60;99.90
34646;DHT22;20857;47.808;12.482;2022-10-23T12:55:52;20.50;99.90
34646;DHT22;20857;47.808;12.482;2022-10-23T12:58:22;20.50;99.90
34646;DHT22;20857;47.808;12.482;2022-10-23T13:00:53;20.40;99.90
34646;DHT22;20857;47.808;12.482;2022-10-23T13:03:20;20.30;99.90
34646;DHT22;20857;47.808;12.482;2022-10-23T13:05:51;20.30;99.90
34646;DHT22;20857;47.808;12.482;2022-10-23T13:08:19;20.30;99.90
34646;DHT22;20857;47.808;12.482;2022-10-23T13:10:46;20.40;99.90
34646;DHT22;20857;47.808;12.482;2022-10-23T13:13:21;20.40;99.90
34646;DHT22;20857;47.808;12.482;2022-10-23T13:15:48;20.40;99.90
34646;DHT22;20857;47.808;12.482;2022-10-23T13:18:14;20.40;99.90
34646;DHT22;20857;47.808;12.482;2022-10-23T13:26:01;20.50;99.90
34646;DHT22;20857;47.808;12.482;2022-10-23T13:28:32;20.40;99.90
34646;DHT22;20857;47.808;12.482;2022-10-23T13:33:38;20.40;99.90
34646;DHT22;20857;47.808;12.482;2022-10-23T13:38:40;20.40;99.90
34646;DHT22;20857;47.808;12.482;2022-10-23T13:41:19;20.40;99.90
34646;DHT22;20857;47.808;12.482;2022-10-23T13:43:46;20.40;99.90
34646;DHT22;20857;47.808;12.482;2022-10-23T13:46:17;20.30;99.90
34646;DHT22;20857;47.808;12.482;2022-10-23T13:48:43;20.30;99.90
34646;DHT22;20857;47.808;12.482;2022-10-23T13:51:18;20.20;99.90
34646;DHT22;20857;47.808;12.482;2022-10-23T13:53:45;20.10;99.90
34646;DHT22;20857;47.808;12.482;2022-10-23T13:56:15;19.90;99.90
34646;DHT22;20857;47.808;12.482;2022-10-23T13:58:41;19.90;99.90
34646;DHT22;20857;47.808;12.482;2022-10-23T14:01:27;19.80;99.90
34646;DHT22;20857;47.808;12.482;2022-10-23T14:03:55;19.70;99.90
34646;DHT22;20857;47.808;12.482;2022-10-23T14:06:21;19.70;99.90
34646;DHT22;20857;47.808;12.482;2022-10-23T14:08:47;19.70;99.90
34646;DHT22;20857;47.808;12.482;2022-10-23T14:11:15;19.60;99.90
34646;DHT22;20857;47.808;12.482;2022-10-23T14:13:41;19.60;99.90
34646;DHT22;20857;47.808;12.482;2022-10-23T14:16:08;19.50;99.90
34646;DHT22;20857;47.808;12.482;2022-10-23T14:18:35;19.50;99.90
34646;DHT22;20857;47.808;12.482;2022-10-23T14:21:03;19.50;99.90
34646;DHT22;20857;47.808;12.482;2022-10-23T14:23:29;19.60;99.90
34646;DHT22;20857;47.808;12.482;2022-10-23T14:26:05;19.60;99.90
34646;DHT22;20857;47.808;12.482;2022-10-23T14:28:31;19.70;99.90
34646;DHT22;20857;47.808;12.482;2022-10-23T14:31:06;19.60;99.90
34646;DHT22;20857;47.808;12.482;2022-10-23T14:33:31;19.60;99.90
34646;DHT22;20857;47.808;12.482;2022-10-23T14:35:57;19.60;99.90
34646;DHT22;20857;47.808;12.482;2022-10-23T14:38:23;19.50;99.90
34646;DHT22;20857;47.808;12.482;2022-10-23T14:40:48;19.40;99.90
34646;DHT22;20857;47.808;12.482;2022-10-23T14:43:14;19.50;99.90
34646;DHT22;20857;47.808;12.482;2022-10-23T14:45:39;19.40;99.90
34646;DHT22;20857;47.808;12.482;2022-10-23T14:48:05;19.50;99.90
34646;DHT22;20857;47.808;12.482;2022-10-23T14:50:31;19.40;99.90
34646;DHT22;20857;47.808;12.482;2022-10-23T14:52:58;19.20;99.90
34646;DHT22;20857;47.808;12.482;2022-10-23T14:55:23;19.00;99.90
34646;DHT22;20857;47.808;12.482;2022-10-23T14:57:53;19.00;99.90
34646;DHT22;20857;47.808;12.482;2022-10-23T15:00:19;18.90;99.90
34646;DHT22;20857;47.808;12.482;2022-10-23T15:02:45;18.80;99.90
34646;DHT22;20857;47.808;12.482;2022-10-23T15:05:10;18.70;99.90
34646;DHT22;20857;47.808;12.482;2022-10-23T15:07:36;18.60;99.90
34646;DHT22;20857;47.808;12.482;2022-10-23T15:10:03;18.50;99.90
34646;DHT22;20857;47.808;12.482;2022-10-23T15:12:28;18.40;99.90
34646;DHT22;20857;47.808;12.482;2022-10-23T15:14:54;18.30;99.90
34646;DHT22;20857;47.808;12.482;2022-10-23T15:17:20;18.30;99.90
34646;DHT22;20857;47.808;12.482;2022-10-23T15:19:45;18.20;99.90
34646;DHT22;20857;47.808;12.482;2022-10-23T15:22:11;18.20;99.90
34646;DHT22;20857;47.808;12.482;2022-10-23T15:24:36;18.20;99.90
34646;DHT22;20857;47.808;12.482;2022-10-23T15:27:02;18.10;99.90
34646;DHT22;20857;47.808;12.482;2022-10-23T15:29:27;18.10;99.90
34646;DHT22;20857;47.808;12.482;2022-10-23T15:31:56;18.00;99.90
34646;DHT22;20857;47.808;12.482;2022-10-23T15:34:24;17.90;99.90
34646;DHT22;20857;47.808;12.482;2022-10-23T15:36:52;17.70;99.90
34646;DHT22;20857;47.808;12.482;2022-10-23T15:39:21;17.60;99.90
34646;DHT22;20857;47.808;12.482;2022-10-23T15:41:50;17.50;99.90
34646;DHT22;20857;47.808;12.482;2022-10-23T15:44:17;17.30;99.90
34646;DHT22;20857;47.808;12.482;2022-10-23T15:46:44;17.20;99.90
34646;DHT22;20857;47.808;12.482;2022-10-23T15:49:10;17.20;99.90
34646;DHT22;20857;47.808;12.482;2022-10-23T15:51:36;17.10;99.90
34646;DHT22;20857;47.808;12.482;2022-10-23T15:54:04;17.00;99.90
34646;DHT22;20857;47.808;12.482;2022-10-23T15:56:30;16.90;99.90
34646;DHT22;20857;47.808;12.482;2022-10-23T15:58:56;16.90;99.90
34646;DHT22;20857;47.808;12.482;2022-10-23T16:01:22;16.80;99.90
34646;DHT22;20857;47.808;12.482;2022-10-23T16:03:47;16.80;99.90
34646;DHT22;20857;47.808;12.482;2022-10-23T16:06:15;16.60;99.90
34646;DHT22;20857;47.808;12.482;2022-10-23T16:08:41;16.50;99.90
34646;DHT22;20857;47.808;12.482;2022-10-23T16:11:23;16.60;99.90
34646;DHT22;20857;47.808;12.482;2022-10-23T16:13:49;16.60;99.90
34646;DHT22;20857;47.808;12.482;2022-10-23T16:16:15;16.60;99.90
34646;DHT22;20857;47.808;12.482;2022-10-23T16:18:42;16.60;99.90
34646;DHT22;20857;47.808;12.482;2022-10-23T16:21:18;16.70;99.90
34646;DHT22;20857;47.808;12.482;2022-10-23T16:23:45;16.70;99.90
34646;DHT22;20857;47.808;12.482;2022-10-23T16:26:11;16.80;99.90
34646;DHT22;20857;47.808;12.482;2022-10-23T16:28:37;16.70;99.90
34646;DHT22;20857;47.808;12.482;2022-10-23T16:31:07;16.70;99.90
34646;DHT22;20857;47.808;12.482;2022-10-23T16:33:33;16.80;99.90
34646;DHT22;20857;47.808;12.482;2022-10-23T16:36:06;16.80;99.90
34646;DHT22;20857;47.808;12.482;2022-10-23T16:38:33;16.70;99.90
34646;DHT22;20857;47.808;12.482;2022-10-23T16:40:58;16.70;99.90
34646;DHT22;20857;47.808;12.482;2022-10-23T16:43:24;16.80;99.90
34646;DHT22;20857;47.808;12.482;2022-10-23T16:46:19;16.90;99.90
34646;DHT22;20857;47.808;12.482;2022-10-23T16:48:46;16.80;99.90
34646;DHT22;20857;47.808;12.482;2022-10-23T16:51:14;16.80;99.90
34646;DHT22;20857;47.808;12.482;2022-10-23T16:53:41;16.80;99.90
34646;DHT22;20857;47.808;12.482;2022-10-23T16:56:09;16.90;99.90
34646;DHT22;20857;47.808;12.482;2022-10-23T16:58:35;16.80;99.90
34646;DHT22;20857;47.808;12.482;2022-10-23T17:01:05;16.70;99.90
34646;DHT22;20857;47.808;12.482;2022-10-23T17:03:37;16.80;99.90
34646;DHT22;20857;47.808;12.482;2022-10-23T17:06:05;16.80;99.90
34646;DHT22;20857;47.808;12.482;2022-10-23T17:08:31;16.60;99.90
34646;DHT22;20857;47.808;12.482;2022-10-23T17:13:32;16.50;99.90
34646;DHT22;20857;47.808;12.482;2022-10-23T17:16:06;16.60;99.90
34646;DHT22;20857;47.808;12.482;2022-10-23T17:18:33;16.60;99.90
34646;DHT22;20857;47.808;12.482;2022-10-23T17:20:59;16.60;99.90
34646;DHT22;20857;47.808;12.482;2022-10-23T17:23:26;16.60;99.90
34646;DHT22;20857;47.808;12.482;2022-10-23T17:25:52;16.50;99.90
34646;DHT22;20857;47.808;12.482;2022-10-23T17:28:18;16.50;99.90
34646;DHT22;20857;47.808;12.482;2022-10-23T17:30:43;16.50;99.90